sensor_id;sensor_type;location;lat;lon;timestamp;temperature;humidity
46356;DHT22;32066;49.474;11.106;2022-12-17T00:01:06;2.10;88.50
46356;DHT22;32066;49.474;11.106;2022-12-17T00:03:50;2.00;88.20
46356;DHT22;32066;49.474;11.106;2022-12-17T00:06:34;2.00;88.20
46356;DHT22;32066;49.474;11.106;2022-12-17T00:09:19;2.00;88.10
46356;DHT22;32066;49.474;11.106;2022-12-17T00:12:04;2.00;87.90
46356;DHT22;32066;49.474;11.106;2022-12-17T00:14:57;2.00;87.60
46356;DHT22;32066;49.474;11.106;2022-12-17T00:17:42;1.90;87.60
46356;DHT22;32066;49.474;11.106;2022-12-17T00:20:26;1.90;87.40
46356;DHT22;32066;49.474;11.106;2022-12-17T00:23:10;1.90;87.10
46356;DHT22;32066;49.474;11.106;2022-12-17T00:25:55;1.90;87.00
46356;DHT22;32066;49.474;11.106;2022-12-17T00:28:41;1.90;86.90
46356;DHT22;32066;49.474;11.106;2022-12-17T00:31:28;1.90;86.80
46356;DHT22;32066;49.474;11.106;2022-12-17T00:34:12;1.90;86.70
46356;DHT22;32066;49.474;11.106;2022-12-17T00:36:56;1.90;86.60
46356;DHT22;32066;49.474;11.106;2022-12-17T00:39:41;1.90;86.30
46356;DHT22;32066;49.474;11.106;2022-12-17T00:42:27;1.90;86.40
46356;DHT22;32066;49.474;11.106;2022-12-17T00:45:13;1.90;86.20
46356;DHT22;32066;49.474;11.106;2022-12-17T00:47:57;1.80;85.90
46356;DHT22;32066;49.474;11.106;2022-12-17T00:50:41;1.90;86.00
46356;DHT22;32066;49.474;11.106;2022-12-17T00:53:26;1.80;85.70
46356;DHT22;32066;49.474;11.106;2022-12-17T00:56:10;1.90;85.50
46356;DHT22;32066;49.474;11.106;2022-12-17T00:58:54;1.90;85.40
46356;DHT22;32066;49.474;11.106;2022-12-17T01:01:40;1.80;85.20
46356;DHT22;32066;49.474;11.106;2022-12-17T01:04:24;1.80;85.00
46356;DHT22;32066;49.474;11.106;2022-12-17T01:07:23;1.80;84.90
46356;DHT22;32066;49.474;11.106;2022-12-17T01:10:08;1.80;84.80
46356;DHT22;32066;49.474;11.106;2022-12-17T01:12:56;1.80;84.70
46356;DHT22;32066;49.474;11.106;2022-12-17T01:15:40;1.80;84.60
46356;DHT22;32066;49.474;11.106;2022-12-17T01:18:26;1.80;84.60
46356;DHT22;32066;49.474;11.106;2022-12-17T01:21:10;1.70;84.50
46356;DHT22;32066;49.474;11.106;2022-12-17T01:23:55;1.70;84.50
46356;DHT22;32066;49.474;11.106;2022-12-17T01:26:39;1.70;84.40
46356;DHT22;32066;49.474;11.106;2022-12-17T01:29:24;1.70;84.20
46356;DHT22;32066;49.474;11.106;2022-12-17T01:32:08;1.70;84.10
46356;DHT22;32066;49.474;11.106;2022-12-17T01:34:53;1.70;84.10
46356;DHT22;32066;49.474;11.106;2022-12-17T01:37:38;1.60;84.10
46356;DHT22;32066;49.474;11.106;2022-12-17T01:40:22;1.70;84.10
46356;DHT22;32066;49.474;11.106;2022-12-17T01:43:11;1.70;84.00
46356;DHT22;32066;49.474;11.106;2022-12-17T01:45:56;1.60;84.00
46356;DHT22;32066;49.474;11.106;2022-12-17T01:48:44;1.60;84.10
46356;DHT22;32066;49.474;11.106;2022-12-17T01:51:33;1.60;84.00
46356;DHT22;32066;49.474;11.106;2022-12-17T01:54:18;1.60;83.70
46356;DHT22;32066;49.474;11.106;2022-12-17T01:57:03;1.60;83.70
46356;DHT22;32066;49.474;11.106;2022-12-17T01:59:51;1.60;83.50
46356;DHT22;32066;49.474;11.106;2022-12-17T02:02:41;1.60;83.20
46356;DHT22;32066;49.474;11.106;2022-12-17T02:05:33;1.50;83.00
46356;DHT22;32066;49.474;11.106;2022-12-17T02:08:25;1.50;82.90
46356;DHT22;32066;49.474;11.106;2022-12-17T02:11:24;1.50;82.90
46356;DHT22;32066;49.474;11.106;2022-12-17T02:14:14;1.50;82.70
46356;DHT22;32066;49.474;11.106;2022-12-17T02:17:02;1.50;82.60
46356;DHT22;32066;49.474;11.106;2022-12-17T02:19:58;1.40;82.40
46356;DHT22;32066;49.474;11.106;2022-12-17T02:22:55;1.40;82.50
46356;DHT22;32066;49.474;11.106;2022-12-17T02:25:49;1.40;82.30
46356;DHT22;32066;49.474;11.106;2022-12-17T02:28:42;1.40;82.10
46356;DHT22;32066;49.474;11.106;2022-12-17T02:31:29;1.30;82.00
46356;DHT22;32066;49.474;11.106;2022-12-17T02:34:15;1.30;81.80
46356;DHT22;32066;49.474;11.106;2022-12-17T02:36:59;1.30;81.70
46356;DHT22;32066;49.474;11.106;2022-12-17T02:39:43;1.30;81.60
46356;DHT22;32066;49.474;11.106;2022-12-17T02:42:30;1.30;81.60
46356;DHT22;32066;49.474;11.106;2022-12-17T02:45:16;1.30;81.60
46356;DHT22;32066;49.474;11.106;2022-12-17T02:48:02;1.20;81.50
46356;DHT22;32066;49.474;11.106;2022-12-17T02:50:47;1.20;81.30
46356;DHT22;32066;49.474;11.106;2022-12-17T02:53:32;1.20;81.20
46356;DHT22;32066;49.474;11.106;2022-12-17T02:56:16;1.10;81.30
46356;DHT22;32066;49.474;11.106;2022-12-17T02:59:01;1.10;81.20
46356;DHT22;32066;49.474;11.106;2022-12-17T03:01:47;1.10;81.00
46356;DHT22;32066;49.474;11.106;2022-12-17T03:04:31;1.10;80.90
46356;DHT22;32066;49.474;11.106;2022-12-17T03:07:15;1.00;80.80
46356;DHT22;32066;49.474;11.106;2022-12-17T03:10:00;1.10;80.80
46356;DHT22;32066;49.474;11.106;2022-12-17T03:12:44;1.10;80.80
46356;DHT22;32066;49.474;11.106;2022-12-17T03:15:28;1.00;80.60
46356;DHT22;32066;49.474;11.106;2022-12-17T03:18:21;1.00;80.40
46356;DHT22;32066;49.474;11.106;2022-12-17T03:21:05;1.00;80.30
46356;DHT22;32066;49.474;11.106;2022-12-17T03:23:49;1.00;80.30
46356;DHT22;32066;49.474;11.106;2022-12-17T03:26:34;0.90;80.70
46356;DHT22;32066;49.474;11.106;2022-12-17T03:29:18;0.90;80.30
46356;DHT22;32066;49.474;11.106;2022-12-17T03:32:03;0.90;80.40
46356;DHT22;32066;49.474;11.106;2022-12-17T03:34:48;0.90;80.30
46356;DHT22;32066;49.474;11.106;2022-12-17T03:37:33;0.80;80.10
46356;DHT22;32066;49.474;11.106;2022-12-17T03:40:17;0.80;80.20
46356;DHT22;32066;49.474;11.106;2022-12-17T03:43:05;0.80;80.20
46356;DHT22;32066;49.474;11.106;2022-12-17T03:46:04;0.70;80.00
46356;DHT22;32066;49.474;11.106;2022-12-17T03:48:48;0.70;79.90
46356;DHT22;32066;49.474;11.106;2022-12-17T03:51:34;0.70;80.00
46356;DHT22;32066;49.474;11.106;2022-12-17T03:54:18;0.70;79.70
46356;DHT22;32066;49.474;11.106;2022-12-17T03:57:03;0.70;79.60
46356;DHT22;32066;49.474;11.106;2022-12-17T03:59:47;0.70;79.40
46356;DHT22;32066;49.474;11.106;2022-12-17T04:02:37;0.60;79.40
46356;DHT22;32066;49.474;11.106;2022-12-17T04:05:22;0.60;79.40
46356;DHT22;32066;49.474;11.106;2022-12-17T04:08:07;0.60;79.20
46356;DHT22;32066;49.474;11.106;2022-12-17T04:10:52;0.60;79.20
46356;DHT22;32066;49.474;11.106;2022-12-17T04:13:36;0.60;79.20
46356;DHT22;32066;49.474;11.106;2022-12-17T04:16:20;0.60;79.20
46356;DHT22;32066;49.474;11.106;2022-12-17T04:19:09;0.60;79.20
46356;DHT22;32066;49.474;11.106;2022-12-17T04:21:59;0.50;79.40
46356;DHT22;32066;49.474;11.106;2022-12-17T04:24:45;0.50;79.30
46356;DHT22;32066;49.474;11.106;2022-12-17T04:27:30;0.50;79.20
46356;DHT22;32066;49.474;11.106;2022-12-17T04:30:14;0.50;79.20
46356;DHT22;32066;49.474;11.106;2022-12-17T04:32:58;0.50;79.30
46356;DHT22;32066;49.474;11.106;2022-12-17T04:35:43;0.50;79.20
46356;DHT22;32066;49.474;11.106;2022-12-17T04:38:27;0.40;79.10
46356;DHT22;32066;49.474;11.106;2022-12-17T04:41:13;0.40;79.10
46356;DHT22;32066;49.474;11.106;2022-12-17T04:43:57;0.40;79.00
46356;DHT22;32066;49.474;11.106;2022-12-17T04:46:42;0.40;78.80
46356;DHT22;32066;49.474;11.106;2022-12-17T04:49:23;0.40;78.80
46356;DHT22;32066;49.474;11.106;2022-12-17T04:52:07;0.30;78.50
46356;DHT22;32066;49.474;11.106;2022-12-17T04:54:52;0.40;78.70
46356;DHT22;32066;49.474;11.106;2022-12-17T04:57:37;0.30;78.60
46356;DHT22;32066;49.474;11.106;2022-12-17T05:00:21;0.30;78.40
46356;DHT22;32066;49.474;11.106;2022-12-17T05:03:08;0.30;78.50
46356;DHT22;32066;49.474;11.106;2022-12-17T05:05:54;0.20;78.40
46356;DHT22;32066;49.474;11.106;2022-12-17T05:08:38;0.30;78.50
46356;DHT22;32066;49.474;11.106;2022-12-17T05:11:23;0.20;78.50
46356;DHT22;32066;49.474;11.106;2022-12-17T05:14:08;0.20;78.40
46356;DHT22;32066;49.474;11.106;2022-12-17T05:16:53;0.20;78.40
46356;DHT22;32066;49.474;11.106;2022-12-17T05:19:37;0.20;78.30
46356;DHT22;32066;49.474;11.106;2022-12-17T05:22:21;0.20;78.20
46356;DHT22;32066;49.474;11.106;2022-12-17T05:25:06;0.20;78.10
46356;DHT22;32066;49.474;11.106;2022-12-17T05:27:51;0.20;77.90
46356;DHT22;32066;49.474;11.106;2022-12-17T05:30:40;0.10;77.90
46356;DHT22;32066;49.474;11.106;2022-12-17T05:33:25;0.10;78.00
46356;DHT22;32066;49.474;11.106;2022-12-17T05:36:09;0.10;77.70
46356;DHT22;32066;49.474;11.106;2022-12-17T05:38:54;0.10;77.60
46356;DHT22;32066;49.474;11.106;2022-12-17T05:41:38;0.10;77.50
46356;DHT22;32066;49.474;11.106;2022-12-17T05:44:22;0.10;77.70
46356;DHT22;32066;49.474;11.106;2022-12-17T05:47:08;0.10;77.50
46356;DHT22;32066;49.474;11.106;2022-12-17T05:49:53;0.00;77.50
46356;DHT22;32066;49.474;11.106;2022-12-17T05:52:37;0.00;77.40
46356;DHT22;32066;49.474;11.106;2022-12-17T05:55:21;0.00;77.40
46356;DHT22;32066;49.474;11.106;2022-12-17T05:58:09;0.00;77.40
46356;DHT22;32066;49.474;11.106;2022-12-17T06:00:54;0.00;77.50
46356;DHT22;32066;49.474;11.106;2022-12-17T06:03:40;0.00;77.40
46356;DHT22;32066;49.474;11.106;2022-12-17T06:06:24;0.00;77.40
46356;DHT22;32066;49.474;11.106;2022-12-17T06:09:09;-0.10;77.40
46356;DHT22;32066;49.474;11.106;2022-12-17T06:11:58;-0.10;77.30
46356;DHT22;32066;49.474;11.106;2022-12-17T06:15:01;-0.10;77.20
46356;DHT22;32066;49.474;11.106;2022-12-17T06:17:54;-0.10;77.20
46356;DHT22;32066;49.474;11.106;2022-12-17T06:20:40;-0.10;77.20
46356;DHT22;32066;49.474;11.106;2022-12-17T06:23:25;-0.10;77.20
46356;DHT22;32066;49.474;11.106;2022-12-17T06:26:09;-0.20;77.00
46356;DHT22;32066;49.474;11.106;2022-12-17T06:28:54;-0.10;77.00
46356;DHT22;32066;49.474;11.106;2022-12-17T06:31:39;-0.20;76.90
46356;DHT22;32066;49.474;11.106;2022-12-17T06:34:23;-0.20;76.80
46356;DHT22;32066;49.474;11.106;2022-12-17T06:37:08;-0.20;76.80
46356;DHT22;32066;49.474;11.106;2022-12-17T06:39:53;-0.30;76.80
46356;DHT22;32066;49.474;11.106;2022-12-17T06:42:37;-0.20;77.00
46356;DHT22;32066;49.474;11.106;2022-12-17T06:45:30;-0.30;77.30
46356;DHT22;32066;49.474;11.106;2022-12-17T06:48:14;-0.30;77.50
46356;DHT22;32066;49.474;11.106;2022-12-17T06:50:58;-0.30;77.90
46356;DHT22;32066;49.474;11.106;2022-12-17T06:53:44;-0.30;78.40
46356;DHT22;32066;49.474;11.106;2022-12-17T06:56:28;-0.30;78.50
46356;DHT22;32066;49.474;11.106;2022-12-17T06:59:12;-0.30;78.50
46356;DHT22;32066;49.474;11.106;2022-12-17T07:01:59;-0.30;78.40
46356;DHT22;32066;49.474;11.106;2022-12-17T07:04:43;-0.30;78.40
46356;DHT22;32066;49.474;11.106;2022-12-17T07:07:27;-0.40;78.20
46356;DHT22;32066;49.474;11.106;2022-12-17T07:10:13;-0.40;78.20
46356;DHT22;32066;49.474;11.106;2022-12-17T07:13:03;-0.40;78.10
46356;DHT22;32066;49.474;11.106;2022-12-17T07:15:48;-0.40;78.00
46356;DHT22;32066;49.474;11.106;2022-12-17T07:18:32;-0.40;77.90
46356;DHT22;32066;49.474;11.106;2022-12-17T07:21:16;-0.40;78.00
46356;DHT22;32066;49.474;11.106;2022-12-17T07:24:01;-0.40;77.80
46356;DHT22;32066;49.474;11.106;2022-12-17T07:26:46;-0.40;77.80
46356;DHT22;32066;49.474;11.106;2022-12-17T07:29:45;-0.40;77.70
46356;DHT22;32066;49.474;11.106;2022-12-17T07:32:29;-0.40;77.50
46356;DHT22;32066;49.474;11.106;2022-12-17T07:35:13;-0.40;77.40
46356;DHT22;32066;49.474;11.106;2022-12-17T07:37:58;-0.40;77.30
46356;DHT22;32066;49.474;11.106;2022-12-17T07:40:43;-0.40;77.20
46356;DHT22;32066;49.474;11.106;2022-12-17T07:43:29;-0.40;77.10
46356;DHT22;32066;49.474;11.106;2022-12-17T07:46:13;-0.40;77.10
46356;DHT22;32066;49.474;11.106;2022-12-17T07:48:57;-0.40;77.10
46356;DHT22;32066;49.474;11.106;2022-12-17T07:51:42;-0.40;76.80
46356;DHT22;32066;49.474;11.106;2022-12-17T07:54:26;-0.40;76.70
46356;DHT22;32066;49.474;11.106;2022-12-17T07:57:10;-0.30;76.80
46356;DHT22;32066;49.474;11.106;2022-12-17T07:59:52;-0.30;76.70
46356;DHT22;32066;49.474;11.106;2022-12-17T08:02:36;-0.30;76.60
46356;DHT22;32066;49.474;11.106;2022-12-17T08:05:20;-0.30;76.50
46356;DHT22;32066;49.474;11.106;2022-12-17T08:08:08;-0.20;76.40
46356;DHT22;32066;49.474;11.106;2022-12-17T08:10:53;-0.20;76.30
46356;DHT22;32066;49.474;11.106;2022-12-17T08:13:37;-0.10;76.50
46356;DHT22;32066;49.474;11.106;2022-12-17T08:16:23;0.00;76.50
46356;DHT22;32066;49.474;11.106;2022-12-17T08:19:07;0.10;76.40
46356;DHT22;32066;49.474;11.106;2022-12-17T08:21:51;0.20;76.40
46356;DHT22;32066;49.474;11.106;2022-12-17T08:24:35;0.20;76.30
46356;DHT22;32066;49.474;11.106;2022-12-17T08:27:19;0.30;76.40
46356;DHT22;32066;49.474;11.106;2022-12-17T08:30:12;0.40;76.10
46356;DHT22;32066;49.474;11.106;2022-12-17T08:33:02;0.60;76.00
46356;DHT22;32066;49.474;11.106;2022-12-17T08:35:50;0.70;75.70
46356;DHT22;32066;49.474;11.106;2022-12-17T08:38:35;0.80;75.40
46356;DHT22;32066;49.474;11.106;2022-12-17T08:41:27;1.00;75.20
46356;DHT22;32066;49.474;11.106;2022-12-17T08:44:12;1.10;75.20
46356;DHT22;32066;49.474;11.106;2022-12-17T08:46:56;1.20;75.00
46356;DHT22;32066;49.474;11.106;2022-12-17T08:49:42;1.30;74.80
46356;DHT22;32066;49.474;11.106;2022-12-17T08:52:26;1.40;74.80
46356;DHT22;32066;49.474;11.106;2022-12-17T08:55:10;1.50;74.80
46356;DHT22;32066;49.474;11.106;2022-12-17T08:57:55;1.60;74.70
46356;DHT22;32066;49.474;11.106;2022-12-17T09:00:40;1.70;74.80
46356;DHT22;32066;49.474;11.106;2022-12-17T09:03:25;1.80;74.40
46356;DHT22;32066;49.474;11.106;2022-12-17T09:06:10;1.90;74.20
46356;DHT22;32066;49.474;11.106;2022-12-17T09:08:55;2.00;74.30
46356;DHT22;32066;49.474;11.106;2022-12-17T09:11:39;2.10;74.10
46356;DHT22;32066;49.474;11.106;2022-12-17T09:14:23;2.20;73.90
46356;DHT22;32066;49.474;11.106;2022-12-17T09:17:07;2.30;73.80
46356;DHT22;32066;49.474;11.106;2022-12-17T09:19:52;2.40;73.80
46356;DHT22;32066;49.474;11.106;2022-12-17T09:22:38;2.50;73.50
46356;DHT22;32066;49.474;11.106;2022-12-17T09:25:23;2.60;73.40
46356;DHT22;32066;49.474;11.106;2022-12-17T09:28:08;2.70;73.40
46356;DHT22;32066;49.474;11.106;2022-12-17T09:30:56;2.90;73.40
46356;DHT22;32066;49.474;11.106;2022-12-17T09:33:40;3.00;73.00
46356;DHT22;32066;49.474;11.106;2022-12-17T09:36:24;3.20;73.30
46356;DHT22;32066;49.474;11.106;2022-12-17T09:39:10;3.30;72.50
46356;DHT22;32066;49.474;11.106;2022-12-17T09:42:00;3.40;72.10
46356;DHT22;32066;49.474;11.106;2022-12-17T09:44:53;3.50;71.60
46356;DHT22;32066;49.474;11.106;2022-12-17T09:47:47;3.70;71.30
46356;DHT22;32066;49.474;11.106;2022-12-17T09:50:34;3.80;71.10
46356;DHT22;32066;49.474;11.106;2022-12-17T09:53:22;3.90;70.90
46356;DHT22;32066;49.474;11.106;2022-12-17T09:56:11;4.00;70.70
46356;DHT22;32066;49.474;11.106;2022-12-17T09:58:57;4.20;70.30
46356;DHT22;32066;49.474;11.106;2022-12-17T10:01:41;4.40;70.10
46356;DHT22;32066;49.474;11.106;2022-12-17T10:04:31;4.50;69.50
46356;DHT22;32066;49.474;11.106;2022-12-17T10:07:19;4.70;69.30
46356;DHT22;32066;49.474;11.106;2022-12-17T10:10:18;4.90;68.50
46356;DHT22;32066;49.474;11.106;2022-12-17T10:13:10;5.10;68.00
46356;DHT22;32066;49.474;11.106;2022-12-17T10:15:54;5.30;67.20
46356;DHT22;32066;49.474;11.106;2022-12-17T10:18:38;5.50;66.80
46356;DHT22;32066;49.474;11.106;2022-12-17T10:21:35;5.70;66.70
46356;DHT22;32066;49.474;11.106;2022-12-17T10:24:21;5.90;66.70
46356;DHT22;32066;49.474;11.106;2022-12-17T10:27:09;6.00;66.10
46356;DHT22;32066;49.474;11.106;2022-12-17T10:29:55;6.20;66.40
46356;DHT22;32066;49.474;11.106;2022-12-17T10:32:39;6.50;66.00
46356;DHT22;32066;49.474;11.106;2022-12-17T10:35:25;6.60;65.20
46356;DHT22;32066;49.474;11.106;2022-12-17T10:38:11;6.90;64.90
46356;DHT22;32066;49.474;11.106;2022-12-17T10:40:56;7.10;64.20
46356;DHT22;32066;49.474;11.106;2022-12-17T10:43:40;7.20;63.50
46356;DHT22;32066;49.474;11.106;2022-12-17T10:46:27;7.40;62.80
46356;DHT22;32066;49.474;11.106;2022-12-17T10:49:14;7.60;62.30
46356;DHT22;32066;49.474;11.106;2022-12-17T10:52:05;7.80;61.80
46356;DHT22;32066;49.474;11.106;2022-12-17T10:54:55;8.00;61.50
46356;DHT22;32066;49.474;11.106;2022-12-17T10:57:40;8.10;61.00
46356;DHT22;32066;49.474;11.106;2022-12-17T11:00:28;8.30;60.70
46356;DHT22;32066;49.474;11.106;2022-12-17T11:03:48;8.50;60.20
46356;DHT22;32066;49.474;11.106;2022-12-17T11:06:34;8.60;59.80
46356;DHT22;32066;49.474;11.106;2022-12-17T11:09:28;8.80;59.40
46356;DHT22;32066;49.474;11.106;2022-12-17T11:12:15;9.00;59.10
46356;DHT22;32066;49.474;11.106;2022-12-17T11:15:06;9.20;58.70
46356;DHT22;32066;49.474;11.106;2022-12-17T11:17:52;9.30;58.30
46356;DHT22;32066;49.474;11.106;2022-12-17T11:20:45;9.50;57.80
46356;DHT22;32066;49.474;11.106;2022-12-17T11:23:31;9.60;57.40
46356;DHT22;32066;49.474;11.106;2022-12-17T11:26:18;9.80;57.00
46356;DHT22;32066;49.474;11.106;2022-12-17T11:29:04;9.90;56.70
46356;DHT22;32066;49.474;11.106;2022-12-17T11:32:01;10.10;56.30
46356;DHT22;32066;49.474;11.106;2022-12-17T11:35:02;10.30;56.20
46356;DHT22;32066;49.474;11.106;2022-12-17T11:37:58;10.50;56.00
46356;DHT22;32066;49.474;11.106;2022-12-17T11:40:48;10.60;55.60
46356;DHT22;32066;49.474;11.106;2022-12-17T11:43:39;10.80;55.10
46356;DHT22;32066;49.474;11.106;2022-12-17T11:46:34;10.90;54.80
46356;DHT22;32066;49.474;11.106;2022-12-17T11:49:32;11.10;54.20
46356;DHT22;32066;49.474;11.106;2022-12-17T11:52:27;11.20;53.80
46356;DHT22;32066;49.474;11.106;2022-12-17T11:55:20;11.40;53.30
46356;DHT22;32066;49.474;11.106;2022-12-17T11:58:14;11.60;53.00
46356;DHT22;32066;49.474;11.106;2022-12-17T12:01:07;11.80;52.10
46356;DHT22;32066;49.474;11.106;2022-12-17T12:03:57;11.90;51.60
46356;DHT22;32066;49.474;11.106;2022-12-17T12:06:53;12.10;51.20
46356;DHT22;32066;49.474;11.106;2022-12-17T12:09:43;12.30;50.90
46356;DHT22;32066;49.474;11.106;2022-12-17T12:12:45;12.40;50.60
46356;DHT22;32066;49.474;11.106;2022-12-17T12:15:38;12.60;50.00
46356;DHT22;32066;49.474;11.106;2022-12-17T12:18:29;12.80;49.70
46356;DHT22;32066;49.474;11.106;2022-12-17T12:21:33;13.00;49.60
46356;DHT22;32066;49.474;11.106;2022-12-17T12:24:31;13.30;49.20
46356;DHT22;32066;49.474;11.106;2022-12-17T12:27:24;13.50;48.80
46356;DHT22;32066;49.474;11.106;2022-12-17T12:30:34;13.70;48.40
46356;DHT22;32066;49.474;11.106;2022-12-17T12:33:27;14.00;47.80
46356;DHT22;32066;49.474;11.106;2022-12-17T12:36:18;14.30;47.20
46356;DHT22;32066;49.474;11.106;2022-12-17T12:39:03;14.60;46.90
46356;DHT22;32066;49.474;11.106;2022-12-17T12:41:52;14.80;46.70
46356;DHT22;32066;49.474;11.106;2022-12-17T12:44:46;15.00;45.90
46356;DHT22;32066;49.474;11.106;2022-12-17T12:47:43;15.30;45.30
46356;DHT22;32066;49.474;11.106;2022-12-17T12:50:34;15.40;44.40
46356;DHT22;32066;49.474;11.106;2022-12-17T12:53:22;15.60;44.30
46356;DHT22;32066;49.474;11.106;2022-12-17T12:56:25;15.80;44.30
46356;DHT22;32066;49.474;11.106;2022-12-17T12:59:14;16.00;43.50
46356;DHT22;32066;49.474;11.106;2022-12-17T13:02:22;16.20;43.40
46356;DHT22;32066;49.474;11.106;2022-12-17T13:05:24;16.30;43.20
46356;DHT22;32066;49.474;11.106;2022-12-17T13:08:02;16.40;42.50
46356;DHT22;32066;49.474;11.106;2022-12-17T13:10:30;16.40;42.90
46356;DHT22;32066;49.474;11.106;2022-12-17T13:13:18;16.50;42.80
46356;DHT22;32066;49.474;11.106;2022-12-17T13:15:50;16.50;42.60
46356;DHT22;32066;49.474;11.106;2022-12-17T13:18:22;16.60;42.50
46356;DHT22;32066;49.474;11.106;2022-12-17T13:21:00;16.60;42.50
46356;DHT22;32066;49.474;11.106;2022-12-17T13:23:33;16.70;42.00
46356;DHT22;32066;49.474;11.106;2022-12-17T13:26:15;16.80;42.00
46356;DHT22;32066;49.474;11.106;2022-12-17T13:28:48;14.50;38.00
46356;DHT22;32066;49.474;11.106;2022-12-17T13:31:18;12.80;39.60
46356;DHT22;32066;49.474;11.106;2022-12-17T13:33:51;11.90;41.20
46356;DHT22;32066;49.474;11.106;2022-12-17T13:36:26;11.40;42.00
46356;DHT22;32066;49.474;11.106;2022-12-17T13:39:00;11.10;42.60
46356;DHT22;32066;49.474;11.106;2022-12-17T13:41:30;10.90;43.30
46356;DHT22;32066;49.474;11.106;2022-12-17T13:44:01;10.70;43.30
46356;DHT22;32066;49.474;11.106;2022-12-17T13:46:29;10.70;43.40
46356;DHT22;32066;49.474;11.106;2022-12-17T13:48:57;10.30;43.90
46356;DHT22;32066;49.474;11.106;2022-12-17T13:51:28;10.50;43.90
46356;DHT22;32066;49.474;11.106;2022-12-17T13:53:59;10.00;43.90
46356;DHT22;32066;49.474;11.106;2022-12-17T13:56:28;10.30;44.30
46356;DHT22;32066;49.474;11.106;2022-12-17T13:58:57;10.40;43.90
46356;DHT22;32066;49.474;11.106;2022-12-17T14:01:27;10.30;43.90
46356;DHT22;32066;49.474;11.106;2022-12-17T14:03:56;10.20;44.10
46356;DHT22;32066;49.474;11.106;2022-12-17T14:06:26;10.40;44.30
46356;DHT22;32066;49.474;11.106;2022-12-17T14:08:55;10.50;43.90
46356;DHT22;32066;49.474;11.106;2022-12-17T14:11:23;10.60;43.70
46356;DHT22;32066;49.474;11.106;2022-12-17T14:14:14;10.70;43.40
46356;DHT22;32066;49.474;11.106;2022-12-17T14:16:41;10.70;43.20
46356;DHT22;32066;49.474;11.106;2022-12-17T14:19:08;10.80;43.30
46356;DHT22;32066;49.474;11.106;2022-12-17T14:21:37;10.80;42.80
46356;DHT22;32066;49.474;11.106;2022-12-17T14:24:08;10.90;42.80
46356;DHT22;32066;49.474;11.106;2022-12-17T14:26:46;10.80;42.70
46356;DHT22;32066;49.474;11.106;2022-12-17T14:29:13;11.10;42.70
46356;DHT22;32066;49.474;11.106;2022-12-17T14:31:51;11.30;42.40
46356;DHT22;32066;49.474;11.106;2022-12-17T14:34:18;11.60;41.80
46356;DHT22;32066;49.474;11.106;2022-12-17T14:36:53;11.90;41.30
46356;DHT22;32066;49.474;11.106;2022-12-17T14:39:23;11.80;41.00
46356;DHT22;32066;49.474;11.106;2022-12-17T14:41:51;11.10;41.50
46356;DHT22;32066;49.474;11.106;2022-12-17T14:44:40;10.10;42.90
46356;DHT22;32066;49.474;11.106;2022-12-17T14:47:17;8.90;44.60
46356;DHT22;32066;49.474;11.106;2022-12-17T14:49:59;7.70;46.70
46356;DHT22;32066;49.474;11.106;2022-12-17T14:52:36;6.70;48.30
46356;DHT22;32066;49.474;11.106;2022-12-17T14:55:24;5.90;50.10
46356;DHT22;32066;49.474;11.106;2022-12-17T14:57:52;5.30;51.90
46356;DHT22;32066;49.474;11.106;2022-12-17T15:00:19;5.00;52.80
46356;DHT22;32066;49.474;11.106;2022-12-17T15:02:50;4.90;53.50
46356;DHT22;32066;49.474;11.106;2022-12-17T15:05:17;4.90;53.70
46356;DHT22;32066;49.474;11.106;2022-12-17T15:07:46;4.70;54.00
46356;DHT22;32066;49.474;11.106;2022-12-17T15:10:16;4.50;54.50
46356;DHT22;32066;49.474;11.106;2022-12-17T15:12:44;4.00;55.20
46356;DHT22;32066;49.474;11.106;2022-12-17T15:15:13;3.40;56.50
46356;DHT22;32066;49.474;11.106;2022-12-17T15:17:40;3.10;57.60
46356;DHT22;32066;49.474;11.106;2022-12-17T15:20:09;3.00;58.20
46356;DHT22;32066;49.474;11.106;2022-12-17T15:22:41;2.90;58.80
46356;DHT22;32066;49.474;11.106;2022-12-17T15:25:11;2.80;59.80
46356;DHT22;32066;49.474;11.106;2022-12-17T15:27:38;2.60;59.50
46356;DHT22;32066;49.474;11.106;2022-12-17T15:30:06;2.50;59.90
46356;DHT22;32066;49.474;11.106;2022-12-17T15:32:33;2.30;60.70
46356;DHT22;32066;49.474;11.106;2022-12-17T15:35:00;2.00;61.10
46356;DHT22;32066;49.474;11.106;2022-12-17T15:37:26;1.90;62.00
46356;DHT22;32066;49.474;11.106;2022-12-17T15:39:53;2.00;61.70
46356;DHT22;32066;49.474;11.106;2022-12-17T15:42:24;1.80;62.00
46356;DHT22;32066;49.474;11.106;2022-12-17T15:45:10;1.50;63.50
46356;DHT22;32066;49.474;11.106;2022-12-17T15:47:37;1.40;64.40
46356;DHT22;32066;49.474;11.106;2022-12-17T15:50:05;1.20;65.00
46356;DHT22;32066;49.474;11.106;2022-12-17T15:52:31;1.20;65.30
46356;DHT22;32066;49.474;11.106;2022-12-17T15:54:58;1.20;65.20
46356;DHT22;32066;49.474;11.106;2022-12-17T15:57:27;1.10;65.50
46356;DHT22;32066;49.474;11.106;2022-12-17T15:59:53;1.10;65.90
46356;DHT22;32066;49.474;11.106;2022-12-17T16:02:20;1.00;66.20
46356;DHT22;32066;49.474;11.106;2022-12-17T16:04:47;0.90;66.50
46356;DHT22;32066;49.474;11.106;2022-12-17T16:07:14;0.80;66.90
46356;DHT22;32066;49.474;11.106;2022-12-17T16:09:41;0.70;67.00
46356;DHT22;32066;49.474;11.106;2022-12-17T16:12:07;0.60;67.20
46356;DHT22;32066;49.474;11.106;2022-12-17T16:14:36;0.50;67.90
46356;DHT22;32066;49.474;11.106;2022-12-17T16:17:02;0.50;68.30
46356;DHT22;32066;49.474;11.106;2022-12-17T16:19:29;0.50;68.40
46356;DHT22;32066;49.474;11.106;2022-12-17T16:21:56;0.40;68.40
46356;DHT22;32066;49.474;11.106;2022-12-17T16:24:23;0.30;68.80
46356;DHT22;32066;49.474;11.106;2022-12-17T16:26:50;0.20;69.30
46356;DHT22;32066;49.474;11.106;2022-12-17T16:29:16;0.20;69.60
46356;DHT22;32066;49.474;11.106;2022-12-17T16:31:44;0.10;69.80
46356;DHT22;32066;49.474;11.106;2022-12-17T16:34:12;0.00;70.20
46356;DHT22;32066;49.474;11.106;2022-12-17T16:36:39;-0.10;70.10
46356;DHT22;32066;49.474;11.106;2022-12-17T16:39:06;-0.20;71.00
46356;DHT22;32066;49.474;11.106;2022-12-17T16:41:33;-0.40;71.60
46356;DHT22;32066;49.474;11.106;2022-12-17T16:44:01;-0.40;72.20
46356;DHT22;32066;49.474;11.106;2022-12-17T16:46:29;-0.40;72.40
46356;DHT22;32066;49.474;11.106;2022-12-17T16:48:59;-0.40;72.90
46356;DHT22;32066;49.474;11.106;2022-12-17T16:51:29;-0.60;73.20
46356;DHT22;32066;49.474;11.106;2022-12-17T16:53:56;-0.70;73.90
46356;DHT22;32066;49.474;11.106;2022-12-17T16:56:25;-0.70;73.70
46356;DHT22;32066;49.474;11.106;2022-12-17T16:58:52;-0.70;73.80
46356;DHT22;32066;49.474;11.106;2022-12-17T17:01:21;-0.70;73.50
46356;DHT22;32066;49.474;11.106;2022-12-17T17:03:48;-0.70;73.50